sensor_id;sensor_type;location;lat;lon;timestamp;temperature;humidity
3614;DHT22;1821;50.936;6.854;2022-08-14T00:00:20;23.20;92.20
3614;DHT22;1821;50.936;6.854;2022-08-14T00:01:03;23.30;91.80
3614;DHT22;1821;50.936;6.854;2022-08-14T00:01:52;23.20;91.00
3614;DHT22;1821;50.936;6.854;2022-08-14T00:02:36;23.20;92.60
3614;DHT22;1821;50.936;6.854;2022-08-14T00:03:20;23.10;91.40
3614;DHT22;1821;50.936;6.854;2022-08-14T00:04:10;23.00;92.60
3614;DHT22;1821;50.936;6.854;2022-08-14T00:05:13;23.20;92.30
3614;DHT22;1821;50.936;6.854;2022-08-14T00:05:57;23.10;91.40
3614;DHT22;1821;50.936;6.854;2022-08-14T00:06:41;22.90;91.10
3614;DHT22;1821;50.936;6.854;2022-08-14T00:07:27;23.10;91.10
3614;DHT22;1821;50.936;6.854;2022-08-14T00:08:09;22.90;91.80
3614;DHT22;1821;50.936;6.854;2022-08-14T00:08:55;22.90;91.80
3614;DHT22;1821;50.936;6.854;2022-08-14T00:09:41;22.90;92.70
3614;DHT22;1821;50.936;6.854;2022-08-14T00:10:44;23.00;92.50
3614;DHT22;1821;50.936;6.854;2022-08-14T00:11:32;23.10;91.70
3614;DHT22;1821;50.936;6.854;2022-08-14T00:12:14;22.90;91.80
3614;DHT22;1821;50.936;6.854;2022-08-14T00:13:05;23.00;92.10
3614;DHT22;1821;50.936;6.854;2022-08-14T00:13:53;22.90;92.10
3614;DHT22;1821;50.936;6.854;2022-08-14T00:14:36;22.80;92.40
3614;DHT22;1821;50.936;6.854;2022-08-14T00:15:25;23.00;92.50
3614;DHT22;1821;50.936;6.854;2022-08-14T00:16:10;22.90;92.10
3614;DHT22;1821;50.936;6.854;2022-08-14T00:17:14;22.90;92.70
3614;DHT22;1821;50.936;6.854;2022-08-14T00:17:56;22.90;92.60
3614;DHT22;1821;50.936;6.854;2022-08-14T00:18:39;22.90;92.90
3614;DHT22;1821;50.936;6.854;2022-08-14T00:19:40;22.90;92.90
3614;DHT22;1821;50.936;6.854;2022-08-14T00:20:29;22.80;92.40
3614;DHT22;1821;50.936;6.854;2022-08-14T00:21:21;22.90;91.90
3614;DHT22;1821;50.936;6.854;2022-08-14T00:22:11;22.90;92.20
3614;DHT22;1821;50.936;6.854;2022-08-14T00:23:19;23.00;93.80
3614;DHT22;1821;50.936;6.854;2022-08-14T00:24:01;22.80;92.00
3614;DHT22;1821;50.936;6.854;2022-08-14T00:24:44;22.90;92.10
3614;DHT22;1821;50.936;6.854;2022-08-14T00:25:29;22.90;93.40
3614;DHT22;1821;50.936;6.854;2022-08-14T00:26:23;22.80;93.70
3614;DHT22;1821;50.936;6.854;2022-08-14T00:27:05;22.90;94.20
3614;DHT22;1821;50.936;6.854;2022-08-14T00:27:47;23.00;94.20
3614;DHT22;1821;50.936;6.854;2022-08-14T00:28:34;23.00;93.60
3614;DHT22;1821;50.936;6.854;2022-08-14T00:29:17;23.00;93.20
3614;DHT22;1821;50.936;6.854;2022-08-14T00:29:59;22.80;92.80
3614;DHT22;1821;50.936;6.854;2022-08-14T00:30:42;23.00;93.20
3614;DHT22;1821;50.936;6.854;2022-08-14T00:31:23;22.90;92.10
3614;DHT22;1821;50.936;6.854;2022-08-14T00:32:25;22.90;92.30
3614;DHT22;1821;50.936;6.854;2022-08-14T00:33:27;22.90;92.10
3614;DHT22;1821;50.936;6.854;2022-08-14T00:34:29;22.80;91.70
3614;DHT22;1821;50.936;6.854;2022-08-14T00:35:26;22.70;92.20
3614;DHT22;1821;50.936;6.854;2022-08-14T00:36:28;23.10;92.30
3614;DHT22;1821;50.936;6.854;2022-08-14T00:37:29;22.80;93.20
3614;DHT22;1821;50.936;6.854;2022-08-14T00:38:12;22.90;91.90
3614;DHT22;1821;50.936;6.854;2022-08-14T00:38:54;22.90;92.20
3614;DHT22;1821;50.936;6.854;2022-08-14T00:39:36;22.80;91.80
3614;DHT22;1821;50.936;6.854;2022-08-14T00:40:19;22.90;92.00
3614;DHT22;1821;50.936;6.854;2022-08-14T00:41:16;22.80;92.70
3614;DHT22;1821;50.936;6.854;2022-08-14T00:41:58;22.70;93.30
3614;DHT22;1821;50.936;6.854;2022-08-14T00:42:42;22.80;92.10
3614;DHT22;1821;50.936;6.854;2022-08-14T00:43:37;22.80;93.40
3614;DHT22;1821;50.936;6.854;2022-08-14T00:44:23;22.70;92.90
3614;DHT22;1821;50.936;6.854;2022-08-14T00:45:14;22.80;91.80
3614;DHT22;1821;50.936;6.854;2022-08-14T00:45:56;23.10;91.90
3614;DHT22;1821;50.936;6.854;2022-08-14T00:46:40;22.70;92.10
3614;DHT22;1821;50.936;6.854;2022-08-14T00:47:22;22.90;92.00
3614;DHT22;1821;50.936;6.854;2022-08-14T00:48:08;22.80;91.00
3614;DHT22;1821;50.936;6.854;2022-08-14T00:48:51;22.70;91.70
3614;DHT22;1821;50.936;6.854;2022-08-14T00:49:34;22.70;93.10
3614;DHT22;1821;50.936;6.854;2022-08-14T00:50:21;22.80;92.00
3614;DHT22;1821;50.936;6.854;2022-08-14T00:51:08;22.70;91.60
3614;DHT22;1821;50.936;6.854;2022-08-14T00:51:50;22.80;91.70
3614;DHT22;1821;50.936;6.854;2022-08-14T00:52:33;22.70;91.70
3614;DHT22;1821;50.936;6.854;2022-08-14T00:53:15;22.50;92.00
3614;DHT22;1821;50.936;6.854;2022-08-14T00:53:58;22.80;92.00
3614;DHT22;1821;50.936;6.854;2022-08-14T00:54:41;22.60;91.90
3614;DHT22;1821;50.936;6.854;2022-08-14T00:55:24;22.70;91.90
3614;DHT22;1821;50.936;6.854;2022-08-14T00:56:07;22.80;93.10
3614;DHT22;1821;50.936;6.854;2022-08-14T00:56:51;22.70;92.10
3614;DHT22;1821;50.936;6.854;2022-08-14T00:57:37;22.70;91.90
3614;DHT22;1821;50.936;6.854;2022-08-14T00:58:20;22.70;92.20
3614;DHT22;1821;50.936;6.854;2022-08-14T00:59:13;22.80;92.90
3614;DHT22;1821;50.936;6.854;2022-08-14T00:59:56;22.70;92.80
3614;DHT22;1821;50.936;6.854;2022-08-14T01:00:39;22.70;92.30
3614;DHT22;1821;50.936;6.854;2022-08-14T01:01:32;22.70;92.30
3614;DHT22;1821;50.936;6.854;2022-08-14T01:02:19;22.80;92.50
3614;DHT22;1821;50.936;6.854;2022-08-14T01:03:08;22.70;92.10
3614;DHT22;1821;50.936;6.854;2022-08-14T01:03:52;22.70;92.50
3614;DHT22;1821;50.936;6.854;2022-08-14T01:04:34;22.60;92.30
3614;DHT22;1821;50.936;6.854;2022-08-14T01:05:34;22.70;92.50
3614;DHT22;1821;50.936;6.854;2022-08-14T01:06:32;22.60;93.70
3614;DHT22;1821;50.936;6.854;2022-08-14T01:07:15;22.70;92.60
3614;DHT22;1821;50.936;6.854;2022-08-14T01:08:01;22.80;92.50
3614;DHT22;1821;50.936;6.854;2022-08-14T01:08:44;22.60;93.50
3614;DHT22;1821;50.936;6.854;2022-08-14T01:09:37;22.50;92.90
3614;DHT22;1821;50.936;6.854;2022-08-14T01:10:20;22.60;93.40
3614;DHT22;1821;50.936;6.854;2022-08-14T01:11:04;22.60;92.80
3614;DHT22;1821;50.936;6.854;2022-08-14T01:11:46;22.70;93.80
3614;DHT22;1821;50.936;6.854;2022-08-14T01:12:44;22.60;93.50
3614;DHT22;1821;50.936;6.854;2022-08-14T01:13:32;22.60;92.80
3614;DHT22;1821;50.936;6.854;2022-08-14T01:14:23;22.50;92.60
3614;DHT22;1821;50.936;6.854;2022-08-14T01:15:10;22.60;92.90
3614;DHT22;1821;50.936;6.854;2022-08-14T01:15:57;22.70;94.00
3614;DHT22;1821;50.936;6.854;2022-08-14T01:16:44;22.60;92.60
3614;DHT22;1821;50.936;6.854;2022-08-14T01:17:33;22.60;92.50
3614;DHT22;1821;50.936;6.854;2022-08-14T01:18:33;22.50;93.00
3614;DHT22;1821;50.936;6.854;2022-08-14T01:19:42;22.60;93.50
3614;DHT22;1821;50.936;6.854;2022-08-14T01:20:45;22.40;93.00
3614;DHT22;1821;50.936;6.854;2022-08-14T01:21:47;22.70;93.10
3614;DHT22;1821;50.936;6.854;2022-08-14T01:22:34;22.60;94.00
3614;DHT22;1821;50.936;6.854;2022-08-14T01:23:17;22.60;93.00
3614;DHT22;1821;50.936;6.854;2022-08-14T01:24:03;22.50;93.90
3614;DHT22;1821;50.936;6.854;2022-08-14T01:24:50;22.50;93.80
3614;DHT22;1821;50.936;6.854;2022-08-14T01:25:32;22.50;93.40
3614;DHT22;1821;50.936;6.854;2022-08-14T01:26:14;22.50;93.20
3614;DHT22;1821;50.936;6.854;2022-08-14T01:27:17;22.50;93.50
3614;DHT22;1821;50.936;6.854;2022-08-14T01:27:59;22.50;93.00
3614;DHT22;1821;50.936;6.854;2022-08-14T01:28:41;22.60;94.10
3614;DHT22;1821;50.936;6.854;2022-08-14T01:29:37;22.40;94.00
3614;DHT22;1821;50.936;6.854;2022-08-14T01:30:39;22.60;93.50
3614;DHT22;1821;50.936;6.854;2022-08-14T01:31:26;22.50;93.00
3614;DHT22;1821;50.936;6.854;2022-08-14T01:32:11;22.50;93.00
3614;DHT22;1821;50.936;6.854;2022-08-14T01:32:56;22.50;94.30
3614;DHT22;1821;50.936;6.854;2022-08-14T01:33:39;22.60;94.10
3614;DHT22;1821;50.936;6.854;2022-08-14T01:34:52;22.50;93.30
3614;DHT22;1821;50.936;6.854;2022-08-14T01:35:56;22.50;93.20
3614;DHT22;1821;50.936;6.854;2022-08-14T01:36:48;22.60;94.30
3614;DHT22;1821;50.936;6.854;2022-08-14T01:37:30;22.40;93.40
3614;DHT22;1821;50.936;6.854;2022-08-14T01:38:12;22.40;93.60
3614;DHT22;1821;50.936;6.854;2022-08-14T01:38:57;22.40;93.40
3614;DHT22;1821;50.936;6.854;2022-08-14T01:39:39;22.40;93.70
3614;DHT22;1821;50.936;6.854;2022-08-14T01:40:22;22.30;93.40
3614;DHT22;1821;50.936;6.854;2022-08-14T01:41:16;22.30;94.10
3614;DHT22;1821;50.936;6.854;2022-08-14T01:42:03;22.40;93.70
3614;DHT22;1821;50.936;6.854;2022-08-14T01:42:49;22.30;94.30
3614;DHT22;1821;50.936;6.854;2022-08-14T01:43:45;22.30;94.90
3614;DHT22;1821;50.936;6.854;2022-08-14T01:44:37;22.30;93.80
3614;DHT22;1821;50.936;6.854;2022-08-14T01:45:21;22.30;94.30
3614;DHT22;1821;50.936;6.854;2022-08-14T01:46:06;22.50;95.10
3614;DHT22;1821;50.936;6.854;2022-08-14T01:47:07;22.30;94.50
3614;DHT22;1821;50.936;6.854;2022-08-14T01:48:03;22.40;94.60
3614;DHT22;1821;50.936;6.854;2022-08-14T01:48:45;22.40;94.90
3614;DHT22;1821;50.936;6.854;2022-08-14T01:49:28;22.30;95.10
3614;DHT22;1821;50.936;6.854;2022-08-14T01:50:16;22.40;94.40
3614;DHT22;1821;50.936;6.854;2022-08-14T01:51:07;22.40;94.40
3614;DHT22;1821;50.936;6.854;2022-08-14T01:52:00;22.50;94.60
3614;DHT22;1821;50.936;6.854;2022-08-14T01:52:49;22.40;94.70
3614;DHT22;1821;50.936;6.854;2022-08-14T01:53:44;22.40;94.60
3614;DHT22;1821;50.936;6.854;2022-08-14T01:54:27;22.50;94.50
3614;DHT22;1821;50.936;6.854;2022-08-14T01:55:19;22.30;94.70
3614;DHT22;1821;50.936;6.854;2022-08-14T01:56:03;22.30;94.90
3614;DHT22;1821;50.936;6.854;2022-08-14T01:56:55;22.40;95.40
3614;DHT22;1821;50.936;6.854;2022-08-14T01:57:37;22.50;95.60
3614;DHT22;1821;50.936;6.854;2022-08-14T01:58:39;22.30;95.00
3614;DHT22;1821;50.936;6.854;2022-08-14T01:59:38;22.40;95.00
3614;DHT22;1821;50.936;6.854;2022-08-14T02:00:24;22.30;95.80
3614;DHT22;1821;50.936;6.854;2022-08-14T02:01:08;22.30;95.10
3614;DHT22;1821;50.936;6.854;2022-08-14T02:01:53;22.40;96.10
3614;DHT22;1821;50.936;6.854;2022-08-14T02:02:39;22.30;95.10
3614;DHT22;1821;50.936;6.854;2022-08-14T02:03:29;22.30;95.20
3614;DHT22;1821;50.936;6.854;2022-08-14T02:04:11;22.40;96.10
3614;DHT22;1821;50.936;6.854;2022-08-14T02:05:13;22.30;95.30
3614;DHT22;1821;50.936;6.854;2022-08-14T02:06:01;22.30;96.00
3614;DHT22;1821;50.936;6.854;2022-08-14T02:07:03;22.30;95.30
3614;DHT22;1821;50.936;6.854;2022-08-14T02:07:46;22.40;95.40
3614;DHT22;1821;50.936;6.854;2022-08-14T02:08:37;22.30;95.70
3614;DHT22;1821;50.936;6.854;2022-08-14T02:09:33;22.30;95.40
3614;DHT22;1821;50.936;6.854;2022-08-14T02:10:20;22.30;95.60
3614;DHT22;1821;50.936;6.854;2022-08-14T02:11:10;22.30;96.00
3614;DHT22;1821;50.936;6.854;2022-08-14T02:12:02;22.30;95.60
3614;DHT22;1821;50.936;6.854;2022-08-14T02:12:49;22.30;95.60
3614;DHT22;1821;50.936;6.854;2022-08-14T02:13:38;22.40;96.60
3614;DHT22;1821;50.936;6.854;2022-08-14T02:14:23;22.30;95.50
3614;DHT22;1821;50.936;6.854;2022-08-14T02:15:12;22.40;95.80
3614;DHT22;1821;50.936;6.854;2022-08-14T02:15:56;22.30;95.90
3614;DHT22;1821;50.936;6.854;2022-08-14T02:17:01;22.20;95.70
3614;DHT22;1821;50.936;6.854;2022-08-14T02:17:44;22.30;96.50
3614;DHT22;1821;50.936;6.854;2022-08-14T02:18:29;22.20;95.90
3614;DHT22;1821;50.936;6.854;2022-08-14T02:19:16;22.20;96.00
3614;DHT22;1821;50.936;6.854;2022-08-14T02:19:58;22.30;96.30
3614;DHT22;1821;50.936;6.854;2022-08-14T02:20:43;22.20;96.20
3614;DHT22;1821;50.936;6.854;2022-08-14T02:21:30;22.10;96.00
3614;DHT22;1821;50.936;6.854;2022-08-14T02:22:25;22.20;95.90
3614;DHT22;1821;50.936;6.854;2022-08-14T02:23:27;22.30;96.00
3614;DHT22;1821;50.936;6.854;2022-08-14T02:24:18;22.30;97.20
3614;DHT22;1821;50.936;6.854;2022-08-14T02:25:23;22.10;96.70
3614;DHT22;1821;50.936;6.854;2022-08-14T02:26:24;22.10;97.00
3614;DHT22;1821;50.936;6.854;2022-08-14T02:27:10;22.20;96.20
3614;DHT22;1821;50.936;6.854;2022-08-14T02:28:12;22.20;96.30
3614;DHT22;1821;50.936;6.854;2022-08-14T02:29:19;22.10;96.20
3614;DHT22;1821;50.936;6.854;2022-08-14T02:30:04;22.10;96.00
3614;DHT22;1821;50.936;6.854;2022-08-14T02:30:49;22.10;96.20
3614;DHT22;1821;50.936;6.854;2022-08-14T02:31:36;22.20;96.60
3614;DHT22;1821;50.936;6.854;2022-08-14T02:32:24;22.20;97.40
3614;DHT22;1821;50.936;6.854;2022-08-14T02:33:17;22.10;96.60
3614;DHT22;1821;50.936;6.854;2022-08-14T02:34:12;22.00;97.60
3614;DHT22;1821;50.936;6.854;2022-08-14T02:35:08;22.00;96.50
3614;DHT22;1821;50.936;6.854;2022-08-14T02:35:54;22.10;97.70
3614;DHT22;1821;50.936;6.854;2022-08-14T02:36:48;22.10;97.20
3614;DHT22;1821;50.936;6.854;2022-08-14T02:37:48;22.00;98.00
3614;DHT22;1821;50.936;6.854;2022-08-14T02:38:30;22.00;97.30
3614;DHT22;1821;50.936;6.854;2022-08-14T02:39:15;22.00;97.50
3614;DHT22;1821;50.936;6.854;2022-08-14T02:40:00;22.00;97.50
3614;DHT22;1821;50.936;6.854;2022-08-14T02:40:46;22.00;97.60
3614;DHT22;1821;50.936;6.854;2022-08-14T02:41:30;22.00;98.40
3614;DHT22;1821;50.936;6.854;2022-08-14T02:42:20;22.00;97.70
3614;DHT22;1821;50.936;6.854;2022-08-14T02:43:17;22.00;97.80
3614;DHT22;1821;50.936;6.854;2022-08-14T02:44:05;21.90;97.70
3614;DHT22;1821;50.936;6.854;2022-08-14T02:44:48;21.80;98.40
3614;DHT22;1821;50.936;6.854;2022-08-14T02:45:32;21.90;97.90
3614;DHT22;1821;50.936;6.854;2022-08-14T02:46:25;21.80;97.90
3614;DHT22;1821;50.936;6.854;2022-08-14T02:47:14;21.90;98.70
3614;DHT22;1821;50.936;6.854;2022-08-14T02:48:03;21.90;98.10
3614;DHT22;1821;50.936;6.854;2022-08-14T02:49:08;21.90;98.30
3614;DHT22;1821;50.936;6.854;2022-08-14T02:49:50;21.90;98.50
3614;DHT22;1821;50.936;6.854;2022-08-14T02:50:37;21.90;98.50
3614;DHT22;1821;50.936;6.854;2022-08-14T02:51:35;21.90;98.30
3614;DHT22;1821;50.936;6.854;2022-08-14T02:52:17;21.90;98.40
3614;DHT22;1821;50.936;6.854;2022-08-14T02:53:19;21.90;98.60
3614;DHT22;1821;50.936;6.854;2022-08-14T02:54:01;21.90;98.80
3614;DHT22;1821;50.936;6.854;2022-08-14T02:54:45;21.80;98.80
3614;DHT22;1821;50.936;6.854;2022-08-14T02:55:27;21.70;99.50
3614;DHT22;1821;50.936;6.854;2022-08-14T02:56:16;21.80;99.30
3614;DHT22;1821;50.936;6.854;2022-08-14T02:57:19;21.70;98.60
3614;DHT22;1821;50.936;6.854;2022-08-14T02:58:21;21.70;98.90
3614;DHT22;1821;50.936;6.854;2022-08-14T02:59:11;21.80;99.20
3614;DHT22;1821;50.936;6.854;2022-08-14T02:59:54;21.70;99.90
3614;DHT22;1821;50.936;6.854;2022-08-14T03:00:38;21.70;99.20
3614;DHT22;1821;50.936;6.854;2022-08-14T03:01:22;21.70;99.80
3614;DHT22;1821;50.936;6.854;2022-08-14T03:02:06;21.70;99.20
3614;DHT22;1821;50.936;6.854;2022-08-14T03:03:09;21.70;99.30
3614;DHT22;1821;50.936;6.854;2022-08-14T03:03:51;21.70;99.40
3614;DHT22;1821;50.936;6.854;2022-08-14T03:04:32;21.70;99.40
3614;DHT22;1821;50.936;6.854;2022-08-14T03:05:15;21.70;99.40
3614;DHT22;1821;50.936;6.854;2022-08-14T03:05:58;21.70;99.20
3614;DHT22;1821;50.936;6.854;2022-08-14T03:06:41;21.60;99.90
3614;DHT22;1821;50.936;6.854;2022-08-14T03:07:46;21.70;99.90
3614;DHT22;1821;50.936;6.854;2022-08-14T03:08:34;21.70;99.90
3614;DHT22;1821;50.936;6.854;2022-08-14T03:09:19;21.60;99.50
3614;DHT22;1821;50.936;6.854;2022-08-14T03:10:02;21.60;99.80
3614;DHT22;1821;50.936;6.854;2022-08-14T03:11:07;21.60;99.90
3614;DHT22;1821;50.936;6.854;2022-08-14T03:11:50;21.60;99.60
3614;DHT22;1821;50.936;6.854;2022-08-14T03:12:34;21.60;99.80
3614;DHT22;1821;50.936;6.854;2022-08-14T03:13:18;21.50;99.90
3614;DHT22;1821;50.936;6.854;2022-08-14T03:14:02;21.60;99.90
3614;DHT22;1821;50.936;6.854;2022-08-14T03:14:45;21.60;99.90
3614;DHT22;1821;50.936;6.854;2022-08-14T03:15:31;21.60;99.90
3614;DHT22;1821;50.936;6.854;2022-08-14T03:16:40;21.50;99.90
3614;DHT22;1821;50.936;6.854;2022-08-14T03:17:22;21.50;99.90
3614;DHT22;1821;50.936;6.854;2022-08-14T03:18:10;21.50;99.90
3614;DHT22;1821;50.936;6.854;2022-08-14T03:18:53;21.50;99.90
3614;DHT22;1821;50.936;6.854;2022-08-14T03:19:41;21.50;99.90
3614;DHT22;1821;50.936;6.854;2022-08-14T03:20:22;21.50;99.90
3614;DHT22;1821;50.936;6.854;2022-08-14T03:21:05;21.50;99.90
3614;DHT22;1821;50.936;6.854;2022-08-14T03:21:51;21.50;99.90
3614;DHT22;1821;50.936;6.854;2022-08-14T03:22:33;21.50;99.90
3614;DHT22;1821;50.936;6.854;2022-08-14T03:23:17;21.40;99.90
3614;DHT22;1821;50.936;6.854;2022-08-14T03:23:59;21.50;99.90
3614;DHT22;1821;50.936;6.854;2022-08-14T03:24:57;21.50;99.90
3614;DHT22;1821;50.936;6.854;2022-08-14T03:25:39;21.50;99.90
3614;DHT22;1821;50.936;6.854;2022-08-14T03:26:21;21.50;99.90
3614;DHT22;1821;50.936;6.854;2022-08-14T03:27:11;21.60;99.90
3614;DHT22;1821;50.936;6.854;2022-08-14T03:27:54;21.50;99.90
3614;DHT22;1821;50.936;6.854;2022-08-14T03:28:41;21.50;99.90
3614;DHT22;1821;50.936;6.854;2022-08-14T03:29:25;21.50;99.90
3614;DHT22;1821;50.936;6.854;2022-08-14T03:30:10;21.50;99.90
3614;DHT22;1821;50.936;6.854;2022-08-14T03:30:56;21.50;99.90
3614;DHT22;1821;50.936;6.854;2022-08-14T03:31:40;21.50;99.90
3614;DHT22;1821;50.936;6.854;2022-08-14T03:32:23;21.40;99.90
3614;DHT22;1821;50.936;6.854;2022-08-14T03:33:12;21.50;99.90
3614;DHT22;1821;50.936;6.854;2022-08-14T03:33:54;21.50;99.90
3614;DHT22;1821;50.936;6.854;2022-08-14T03:34:40;21.40;99.90
3614;DHT22;1821;50.936;6.854;2022-08-14T03:35:37;21.50;99.90
3614;DHT22;1821;50.936;6.854;2022-08-14T03:36:40;21.50;99.90
3614;DHT22;1821;50.936;6.854;2022-08-14T03:37:44;21.40;99.90
3614;DHT22;1821;50.936;6.854;2022-08-14T03:38:48;21.50;99.90
3614;DHT22;1821;50.936;6.854;2022-08-14T03:39:52;21.30;99.90
3614;DHT22;1821;50.936;6.854;2022-08-14T03:40:34;21.40;99.90
3614;DHT22;1821;50.936;6.854;2022-08-14T03:41:19;21.40;99.90
3614;DHT22;1821;50.936;6.854;2022-08-14T03:42:04;21.40;99.90
3614;DHT22;1821;50.936;6.854;2022-08-14T03:43:00;21.40;99.90
3614;DHT22;1821;50.936;6.854;2022-08-14T03:43:48;21.30;99.90
3614;DHT22;1821;50.936;6.854;2022-08-14T03:44:41;21.30;99.90
3614;DHT22;1821;50.936;6.854;2022-08-14T03:45:44;21.30;99.90
3614;DHT22;1821;50.936;6.854;2022-08-14T03:46:32;21.30;99.90
3614;DHT22;1821;50.936;6.854;2022-08-14T03:47:34;21.30;99.90
3614;DHT22;1821;50.936;6.854;2022-08-14T03:48:40;21.30;99.90
3614;DHT22;1821;50.936;6.854;2022-08-14T03:49:23;21.30;99.90
3614;DHT22;1821;50.936;6.854;2022-08-14T03:50:10;21.30;99.90
3614;DHT22;1821;50.936;6.854;2022-08-14T03:50:52;21.30;99.90
3614;DHT22;1821;50.936;6.854;2022-08-14T03:51:36;21.30;99.90
3614;DHT22;1821;50.936;6.854;2022-08-14T03:52:18;21.20;99.90
3614;DHT22;1821;50.936;6.854;2022-08-14T03:53:20;21.30;99.90
3614;DHT22;1821;50.936;6.854;2022-08-14T03:54:05;21.30;99.90
3614;DHT22;1821;50.936;6.854;2022-08-14T03:55:00;21.20;99.90
3614;DHT22;1821;50.936;6.854;2022-08-14T03:55:45;21.20;99.90
3614;DHT22;1821;50.936;6.854;2022-08-14T03:56:33;21.20;99.90
3614;DHT22;1821;50.936;6.854;2022-08-14T03:57:17;21.30;99.90
3614;DHT22;1821;50.936;6.854;2022-08-14T03:57:59;21.20;99.90
3614;DHT22;1821;50.936;6.854;2022-08-14T03:58:44;21.20;99.90
3614;DHT22;1821;50.936;6.854;2022-08-14T03:59:26;21.20;99.90
3614;DHT22;1821;50.936;6.854;2022-08-14T04:00:10;21.30;99.90
3614;DHT22;1821;50.936;6.854;2022-08-14T04:01:15;21.20;99.90
3614;DHT22;1821;50.936;6.854;2022-08-14T04:01:59;21.30;99.90
3614;DHT22;1821;50.936;6.854;2022-08-14T04:02:42;21.20;99.90
3614;DHT22;1821;50.936;6.854;2022-08-14T04:03:28;21.20;99.90
3614;DHT22;1821;50.936;6.854;2022-08-14T04:04:10;21.20;99.90
3614;DHT22;1821;50.936;6.854;2022-08-14T04:04:52;21.30;99.90
3614;DHT22;1821;50.936;6.854;2022-08-14T04:05:35;21.10;99.90
3614;DHT22;1821;50.936;6.854;2022-08-14T04:06:28;21.30;99.90
3614;DHT22;1821;50.936;6.854;2022-08-14T04:07:12;21.10;99.90
3614;DHT22;1821;50.936;6.854;2022-08-14T04:07:54;21.30;99.90
3614;DHT22;1821;50.936;6.854;2022-08-14T04:08:56;21.10;99.90
3614;DHT22;1821;50.936;6.854;2022-08-14T04:09:38;21.20;99.90
3614;DHT22;1821;50.936;6.854;2022-08-14T04:10:21;21.20;99.90
3614;DHT22;1821;50.936;6.854;2022-08-14T04:11:12;21.20;99.90
3614;DHT22;1821;50.936;6.854;2022-08-14T04:11:55;21.10;99.90
3614;DHT22;1821;50.936;6.854;2022-08-14T04:12:38;21.20;99.90
3614;DHT22;1821;50.936;6.854;2022-08-14T04:13:20;21.30;99.90
3614;DHT22;1821;50.936;6.854;2022-08-14T04:14:04;21.30;99.90
3614;DHT22;1821;50.936;6.854;2022-08-14T04:14:47;21.10;99.90
3614;DHT22;1821;50.936;6.854;2022-08-14T04:15:29;21.20;99.90
3614;DHT22;1821;50.936;6.854;2022-08-14T04:16:15;21.20;99.90
3614;DHT22;1821;50.936;6.854;2022-08-14T04:16:58;21.20;99.90
3614;DHT22;1821;50.936;6.854;2022-08-14T04:17:42;21.30;99.90
3614;DHT22;1821;50.936;6.854;2022-08-14T04:18:26;21.30;99.90
3614;DHT22;1821;50.936;6.854;2022-08-14T04:19:08;21.30;99.90
3614;DHT22;1821;50.936;6.854;2022-08-14T04:19:50;21.20;99.90
3614;DHT22;1821;50.936;6.854;2022-08-14T04:20:36;21.10;99.90
3614;DHT22;1821;50.936;6.854;2022-08-14T04:21:35;21.20;99.90
3614;DHT22;1821;50.936;6.854;2022-08-14T04:22:38;21.20;99.90
3614;DHT22;1821;50.936;6.854;2022-08-14T04:23:25;21.20;99.90
3614;DHT22;1821;50.936;6.854;2022-08-14T04:24:13;21.20;99.90
3614;DHT22;1821;50.936;6.854;2022-08-14T04:24:59;21.20;99.90
3614;DHT22;1821;50.936;6.854;2022-08-14T04:25:45;21.20;99.90
3614;DHT22;1821;50.936;6.854;2022-08-14T04:26:28;21.20;99.90
3614;DHT22;1821;50.936;6.854;2022-08-14T04:27:24;21.20;99.90
3614;DHT22;1821;50.936;6.854;2022-08-14T04:28:09;21.30;99.90
3614;DHT22;1821;50.936;6.854;2022-08-14T04:29:12;21.30;99.90
3614;DHT22;1821;50.936;6.854;2022-08-14T04:29:56;21.20;99.90
3614;DHT22;1821;50.936;6.854;2022-08-14T04:30:38;21.10;99.90
3614;DHT22;1821;50.936;6.854;2022-08-14T04:31:23;21.20;99.90
3614;DHT22;1821;50.936;6.854;2022-08-14T04:32:25;21.20;99.90
3614;DHT22;1821;50.936;6.854;2022-08-14T04:33:27;21.20;99.90
3614;DHT22;1821;50.936;6.854;2022-08-14T04:34:12;21.10;99.90
3614;DHT22;1821;50.936;6.854;2022-08-14T04:35:04;21.20;99.90
3614;DHT22;1821;50.936;6.854;2022-08-14T04:35:51;21.20;99.90
3614;DHT22;1821;50.936;6.854;2022-08-14T04:36:37;21.10;99.90
3614;DHT22;1821;50.936;6.854;2022-08-14T04:37:40;21.10;99.90
3614;DHT22;1821;50.936;6.854;2022-08-14T04:38:40;21.20;99.90
3614;DHT22;1821;50.936;6.854;2022-08-14T04:39:40;21.10;99.90
3614;DHT22;1821;50.936;6.854;2022-08-14T04:40:43;21.10;99.90
3614;DHT22;1821;50.936;6.854;2022-08-14T04:41:45;21.10;99.90
3614;DHT22;1821;50.936;6.854;2022-08-14T04:42:55;21.00;99.90
3614;DHT22;1821;50.936;6.854;2022-08-14T04:43:58;21.10;99.90
3614;DHT22;1821;50.936;6.854;2022-08-14T04:44:39;21.10;99.90
3614;DHT22;1821;50.936;6.854;2022-08-14T04:45:23;21.00;99.90
3614;DHT22;1821;50.936;6.854;2022-08-14T04:46:07;21.00;99.90
3614;DHT22;1821;50.936;6.854;2022-08-14T04:46:52;21.10;99.90
3614;DHT22;1821;50.936;6.854;2022-08-14T04:47:53;20.90;99.90
3614;DHT22;1821;50.936;6.854;2022-08-14T04:48:53;21.10;99.90
3614;DHT22;1821;50.936;6.854;2022-08-14T04:49:40;21.00;99.90
3614;DHT22;1821;50.936;6.854;2022-08-14T04:50:46;21.10;99.90
3614;DHT22;1821;50.936;6.854;2022-08-14T04:51:34;21.00;99.90
3614;DHT22;1821;50.936;6.854;2022-08-14T04:52:27;21.10;99.90
3614;DHT22;1821;50.936;6.854;2022-08-14T04:53:14;21.00;99.90
3614;DHT22;1821;50.936;6.854;2022-08-14T04:53:56;21.10;99.90
3614;DHT22;1821;50.936;6.854;2022-08-14T04:54:38;21.00;99.90
3614;DHT22;1821;50.936;6.854;2022-08-14T04:55:21;21.10;99.90
3614;DHT22;1821;50.936;6.854;2022-08-14T04:56:04;21.10;99.90
3614;DHT22;1821;50.936;6.854;2022-08-14T04:56:52;21.00;99.90
3614;DHT22;1821;50.936;6.854;2022-08-14T04:57:37;21.00;99.90
3614;DHT22;1821;50.936;6.854;2022-08-14T04:58:25;21.00;99.90
3614;DHT22;1821;50.936;6.854;2022-08-14T04:59:13;20.90;99.90
3614;DHT22;1821;50.936;6.854;2022-08-14T04:59:55;20.80;99.90
3614;DHT22;1821;50.936;6.854;2022-08-14T05:00:37;20.90;99.90
3614;DHT22;1821;50.936;6.854;2022-08-14T05:01:23;21.00;99.90
3614;DHT22;1821;50.936;6.854;2022-08-14T05:02:05;21.00;99.90
3614;DHT22;1821;50.936;6.854;2022-08-14T05:02:48;20.90;99.90
3614;DHT22;1821;50.936;6.854;2022-08-14T05:03:32;21.00;99.90
3614;DHT22;1821;50.936;6.854;2022-08-14T05:04:21;20.90;99.90
3614;DHT22;1821;50.936;6.854;2022-08-14T05:05:05;21.00;99.90
3614;DHT22;1821;50.936;6.854;2022-08-14T05:05:51;21.00;99.90
3614;DHT22;1821;50.936;6.854;2022-08-14T05:06:35;21.00;99.90
3614;DHT22;1821;50.936;6.854;2022-08-14T05:07:20;21.00;99.90
3614;DHT22;1821;50.936;6.854;2022-08-14T05:08:23;21.10;99.90
3614;DHT22;1821;50.936;6.854;2022-08-14T05:09:25;21.10;99.90
3614;DHT22;1821;50.936;6.854;2022-08-14T05:10:11;21.10;99.90
3614;DHT22;1821;50.936;6.854;2022-08-14T05:11:04;21.10;99.90
3614;DHT22;1821;50.936;6.854;2022-08-14T05:11:52;21.10;99.90
3614;DHT22;1821;50.936;6.854;2022-08-14T05:12:34;21.10;99.90
3614;DHT22;1821;50.936;6.854;2022-08-14T05:13:37;21.10;99.90
3614;DHT22;1821;50.936;6.854;2022-08-14T05:14:39;21.00;99.90
3614;DHT22;1821;50.936;6.854;2022-08-14T05:15:38;21.10;99.90
3614;DHT22;1821;50.936;6.854;2022-08-14T05:16:20;21.20;99.90
3614;DHT22;1821;50.936;6.854;2022-08-14T05:17:02;21.30;99.90
3614;DHT22;1821;50.936;6.854;2022-08-14T05:17:47;21.30;99.90
3614;DHT22;1821;50.936;6.854;2022-08-14T05:18:44;21.10;99.90
3614;DHT22;1821;50.936;6.854;2022-08-14T05:19:47;21.10;99.90